createdAt,value
2022-08-22T00:00:10.324Z,25.56
2022-08-22T00:02:40.981Z,25.72
2022-08-22T00:02:57.678Z,26.07
2022-08-22T00:03:04.491Z,27.40
2022-08-22T00:03:08.536Z,25.89
2022-08-22T00:03:10.386Z,25.95
2022-08-22T00:05:07.262Z,25.60
2022-08-22T00:07:33.482Z,25.60
2022-08-22T02:18:44.557Z,24.62
2022-08-22T02:21:10.506Z,24.65
2022-08-22T02:23:36.673Z,24.60
2022-08-22T02:26:02.698Z,24.73
2022-08-22T02:28:28.789Z,24.66
2022-08-22T02:30:54.805Z,24.52
2022-08-22T02:33:20.799Z,24.52
2022-08-22T02:35:47.450Z,24.59
2022-08-22T02:38:14.039Z,24.60
2022-08-22T02:40:40.092Z,24.56
2022-08-22T02:43:06.458Z,24.53
2022-08-22T02:45:33.156Z,24.57
2022-08-22T02:47:59.335Z,24.11
2022-08-22T02:50:25.430Z,24.31
2022-08-22T02:52:52.080Z,24.27
2022-08-22T02:55:18.476Z,24.03
2022-08-22T02:57:44.457Z,23.96
2022-08-22T03:00:31.629Z,24.10
2022-08-22T03:02:58.223Z,24.11
2022-08-22T03:05:24.202Z,24.21
2022-08-22T03:07:50.922Z,23.96
2022-08-22T03:10:16.911Z,23.80
2022-08-22T03:12:42.851Z,24.02
2022-08-22T03:15:08.891Z,24.04
2022-08-22T03:17:35.733Z,24.01
2022-08-22T03:20:01.666Z,24.16
2022-08-22T03:22:27.629Z,24.30
2022-08-22T03:24:54.600Z,24.30
2022-08-22T03:27:31.364Z,24.09
2022-08-22T03:29:58.505Z,24.22
2022-08-22T03:32:24.466Z,24.18
2022-08-22T03:34:51.114Z,23.97
2022-08-22T03:37:17.973Z,24.23
2022-08-22T03:39:44.030Z,24.27
2022-08-22T03:42:09.980Z,24.23
2022-08-22T03:44:36.826Z,24.18
2022-08-22T03:47:02.817Z,23.93
2022-08-22T03:49:28.767Z,23.99
2022-08-22T03:51:55.637Z,23.93
2022-08-22T03:54:22.348Z,23.45
2022-08-22T03:56:48.335Z,23.76
2022-08-22T03:59:20.017Z,23.77
2022-08-22T04:01:48.182Z,23.95
2022-08-22T04:04:14.172Z,23.92
2022-08-22T04:06:40.168Z,23.94
2022-08-22T04:09:07.107Z,24.08
2022-08-22T04:11:34.429Z,24.22
2022-08-22T04:14:00.451Z,24.07
2022-08-22T04:16:27.178Z,23.99
2022-08-22T04:18:53.168Z,23.70
2022-08-22T04:21:20.577Z,23.65
2022-08-22T04:23:46.981Z,23.43
2022-08-22T04:26:12.987Z,23.57
2022-08-22T04:28:39.030Z,23.71
2022-08-22T04:31:05.047Z,23.65
2022-08-22T04:33:31.771Z,23.81
2022-08-22T04:35:57.833Z,23.85
2022-08-22T04:38:23.796Z,23.70
2022-08-22T04:40:50.393Z,23.80
2022-08-22T04:43:17.221Z,23.54
2022-08-22T04:45:43.182Z,23.52
2022-08-22T04:48:09.200Z,23.61
2022-08-22T04:50:38.001Z,23.77
2022-08-22T04:53:06.302Z,23.49
2022-08-22T04:55:32.272Z,23.43
2022-08-22T04:57:58.749Z,23.44
2022-08-22T05:00:26.405Z,23.72
2022-08-22T05:02:55.106Z,23.40
2022-08-22T05:05:21.514Z,23.25
2022-08-22T05:07:47.738Z,23.67
2022-08-22T05:10:14.864Z,23.91
2022-08-22T05:12:41.218Z,23.96
2022-08-22T07:17:47.212Z,25.05
2022-08-22T07:20:13.155Z,25.06
2022-08-22T07:22:39.866Z,25.26
2022-08-22T07:25:05.873Z,25.13
2022-08-22T07:27:31.834Z,24.99
2022-08-22T07:29:58.498Z,24.98
2022-08-22T07:32:24.593Z,24.85
2022-08-22T07:34:50.956Z,24.86
2022-08-22T07:37:19.485Z,24.92
2022-08-22T07:39:45.580Z,25.07
2022-08-22T07:42:11.548Z,24.91
2022-08-22T07:44:37.530Z,24.96
2022-08-22T07:47:04.444Z,24.84
2022-08-22T07:49:30.404Z,24.87
2022-08-22T07:51:56.351Z,24.75
2022-08-22T07:54:27.196Z,24.75
2022-08-22T07:56:53.373Z,24.78
2022-08-22T07:59:19.346Z,24.73
2022-08-22T08:01:45.437Z,24.65
2022-08-22T08:04:12.197Z,24.67
2022-08-22T08:06:38.180Z,24.77
2022-08-22T08:09:04.273Z,24.95
2022-08-22T08:11:30.229Z,25.13
2022-08-22T08:13:56.175Z,25.35
2022-08-22T08:16:22.179Z,25.51
2022-08-22T08:18:48.968Z,25.60
2022-08-22T08:21:15.144Z,25.64
2022-08-22T08:23:41.167Z,25.53
2022-08-22T08:26:07.930Z,25.38
2022-08-22T08:28:33.927Z,25.35
2022-08-22T08:30:59.981Z,25.21
2022-08-22T08:33:26.864Z,25.36
2022-08-22T08:36:02.881Z,25.62
2022-08-22T08:38:30.700Z,25.74
2022-08-22T08:40:56.670Z,25.78
2022-08-22T08:43:22.634Z,25.86
2022-08-22T08:45:48.638Z,25.92
2022-08-22T08:48:14.586Z,26.02
2022-08-22T08:50:40.554Z,25.20
2022-08-22T08:53:09.372Z,25.06
2022-08-22T08:55:37.277Z,25.37
2022-08-22T08:58:06.804Z,25.45
2022-08-22T09:00:33.829Z,25.70
2022-08-22T09:03:00.109Z,25.77
2022-08-22T09:05:32.820Z,25.67
2022-08-22T09:07:59.467Z,25.75
2022-08-22T09:10:27.375Z,26.02
2022-08-22T09:12:56.485Z,26.07
2022-08-22T09:15:39.050Z,25.97
2022-08-22T09:18:05.003Z,26.19
2022-08-22T09:20:31.816Z,26.34
2022-08-22T09:22:58.407Z,26.48
2022-08-22T09:25:25.182Z,26.61
2022-08-22T09:27:51.134Z,26.79
2022-08-22T09:30:17.998Z,26.91
2022-08-22T09:32:54.293Z,26.99
2022-08-22T09:35:22.525Z,27.04
2022-08-22T09:37:48.546Z,26.86
2022-08-22T09:40:19.677Z,27.15
2022-08-22T09:42:47.326Z,27.40
2022-08-22T09:45:13.331Z,27.56
2022-08-22T09:47:39.482Z,27.69
2022-08-22T09:50:05.484Z,27.71
2022-08-22T09:52:34.124Z,27.75
2022-08-22T09:55:02.572Z,27.92
2022-08-22T09:57:28.844Z,27.79
2022-08-22T09:59:55.087Z,28.02
2022-08-22T10:02:24.827Z,28.39
2022-08-22T10:04:53.030Z,28.69
2022-08-22T10:07:19.337Z,28.73
2022-08-22T10:09:46.282Z,28.96
2022-08-22T12:23:48.490Z,28.51
2022-08-22T12:26:14.984Z,27.73
2022-08-22T12:28:41.768Z,27.81
2022-08-22T12:31:08.990Z,28.05
2022-08-22T12:33:35.717Z,28.21
2022-08-22T12:36:01.723Z,28.12
2022-08-22T12:38:29.127Z,28.35
2022-08-22T12:40:56.552Z,28.29
2022-08-22T12:43:23.233Z,28.44
2022-08-22T12:45:50.867Z,28.41
2022-08-22T12:48:17.663Z,28.42
2022-08-22T12:50:43.689Z,28.59
2022-08-22T12:53:12.253Z,28.40
2022-08-22T12:55:43.652Z,28.52
2022-08-22T12:58:09.637Z,28.65
2022-08-22T13:00:36.439Z,28.72
2022-08-22T13:03:02.622Z,28.68
2022-08-22T13:05:40.445Z,28.63
2022-08-22T13:08:07.887Z,28.66
2022-08-22T13:10:35.515Z,28.51
2022-08-22T13:13:03.799Z,28.44
2022-08-22T13:15:38.015Z,28.60
2022-08-22T13:18:29.195Z,28.65
2022-08-22T13:20:53.812Z,28.55
2022-08-22T13:23:20.501Z,28.39
2022-08-22T13:25:46.490Z,28.33
2022-08-22T13:28:17.397Z,27.93
2022-08-22T13:30:43.848Z,27.81
2022-08-22T13:33:11.037Z,27.87
2022-08-22T13:35:37.189Z,27.97
2022-08-22T13:38:12.264Z,27.56
2022-08-22T13:40:38.503Z,27.49
2022-08-22T13:43:05.154Z,27.42
2022-08-22T13:45:31.988Z,27.05
2022-08-22T13:47:58.111Z,26.92
2022-08-22T13:50:24.955Z,26.74
2022-08-22T13:52:55.087Z,26.31
2022-08-22T13:55:21.492Z,26.72
2022-08-22T13:57:51.964Z,26.68
2022-08-22T14:00:28.838Z,26.65
2022-08-22T14:02:55.638Z,26.72
2022-08-22T14:05:22.280Z,26.82
2022-08-22T14:07:48.820Z,26.87
2022-08-22T14:10:18.994Z,26.83
2022-08-22T14:12:50.041Z,26.91
2022-08-22T14:15:17.180Z,26.92
2022-08-22T14:17:43.222Z,27.12
2022-08-22T14:20:11.192Z,27.32
2022-08-22T14:22:37.255Z,27.24
2022-08-22T14:25:04.149Z,27.20
2022-08-22T14:27:34.024Z,27.06
2022-08-22T14:30:00.271Z,27.13
2022-08-22T14:32:30.931Z,27.07
2022-08-22T14:35:02.563Z,27.16
2022-08-22T14:37:30.079Z,27.18
2022-08-22T14:39:56.731Z,27.29
2022-08-22T14:45:06.809Z,27.23
2022-08-22T16:56:03.191Z,27.20
2022-08-22T16:58:49.870Z,27.12
2022-08-22T17:01:16.019Z,27.03
2022-08-22T17:03:42.759Z,27.17
2022-08-22T17:06:08.750Z,27.18
2022-08-22T17:08:34.749Z,26.86
2022-08-22T17:11:01.470Z,26.89
2022-08-22T17:13:27.551Z,27.08
2022-08-22T17:15:53.593Z,26.75
2022-08-22T17:18:20.329Z,26.94
2022-08-22T17:20:46.268Z,27.03
2022-08-22T17:23:13.190Z,27.03
2022-08-22T17:25:39.195Z,26.99
2022-08-22T17:28:05.386Z,26.68
2022-08-22T17:30:31.439Z,26.69
2022-08-22T17:32:59.724Z,26.53
2022-08-22T17:35:25.981Z,26.51
2022-08-22T17:37:51.981Z,26.20
2022-08-22T17:40:17.986Z,26.54
2022-08-22T17:42:43.984Z,26.77
2022-08-22T17:45:09.981Z,27.06
2022-08-22T17:47:35.935Z,26.49
2022-08-22T17:50:02.566Z,26.66
2022-08-22T17:52:28.638Z,26.68
2022-08-22T17:54:54.590Z,25.94
2022-08-22T17:57:21.220Z,26.40
2022-08-22T17:59:47.256Z,26.36
2022-08-22T18:02:13.213Z,26.54
2022-08-22T18:04:41.610Z,26.55
2022-08-22T18:07:09.334Z,26.45
2022-08-22T18:09:35.284Z,26.72
2022-08-22T18:12:01.890Z,26.54
2022-08-22T18:14:27.896Z,26.67
2022-08-22T18:16:53.875Z,26.55
2022-08-22T18:19:20.596Z,26.74
2022-08-22T18:21:46.774Z,26.76
2022-08-22T18:24:12.729Z,26.79
2022-08-22T18:26:38.766Z,26.76
2022-08-22T18:29:04.931Z,26.64
2022-08-22T18:31:34.136Z,26.67
2022-08-22T18:34:02.370Z,26.62
2022-08-22T18:36:29.619Z,26.71
2022-08-22T18:38:56.000Z,26.53
2022-08-22T18:41:21.971Z,26.54
2022-08-22T18:43:49.266Z,26.61
2022-08-22T18:46:15.220Z,26.62
2022-08-22T18:48:59.409Z,26.37
2022-08-22T18:51:27.185Z,26.28
2022-08-22T18:53:53.173Z,26.36
2022-08-22T18:56:19.123Z,26.04
2022-08-22T18:58:45.299Z,26.10
2022-08-22T19:01:11.346Z,26.28
2022-08-22T19:03:38.006Z,26.17
2022-08-22T19:06:04.071Z,26.20
2022-08-22T19:08:30.031Z,26.10
2022-08-22T19:10:55.982Z,25.78
2022-08-22T19:13:21.994Z,26.08
2022-08-22T19:15:47.949Z,26.18
2022-08-22T19:18:13.939Z,26.15
2022-08-22T19:20:40.458Z,26.17
2022-08-22T19:23:07.116Z,26.12
2022-08-22T19:25:33.073Z,26.35
2022-08-22T19:27:59.073Z,26.34
2022-08-22T19:30:25.705Z,26.25
2022-08-22T19:32:52.001Z,26.12
2022-08-22T19:35:18.285Z,26.10
2022-08-22T19:37:45.668Z,26.21
2022-08-22T19:40:12.102Z,26.30
2022-08-22T19:42:38.506Z,26.00
2022-08-22T19:45:06.084Z,26.10
2022-08-22T19:47:32.180Z,26.01
2022-08-22T21:54:22.398Z,25.48
2022-08-22T21:56:49.281Z,25.16
2022-08-22T21:59:15.237Z,25.28
2022-08-22T22:01:42.718Z,25.42
2022-08-22T22:04:11.804Z,25.42
2022-08-22T22:06:37.782Z,25.18
2022-08-22T22:09:03.787Z,25.28
2022-08-22T22:11:30.460Z,25.37
2022-08-22T22:13:56.709Z,25.32
2022-08-22T22:16:22.689Z,25.29
2022-08-22T22:18:49.405Z,24.58
2022-08-22T22:21:15.395Z,24.75
2022-08-22T22:23:41.406Z,25.06
2022-08-22T22:26:08.145Z,25.25
2022-08-22T22:28:34.123Z,25.28
2022-08-22T22:31:00.141Z,25.34
2022-08-22T22:33:26.090Z,25.22
2022-08-22T22:35:52.031Z,25.41
2022-08-22T22:38:23.249Z,25.53
2022-08-22T22:40:49.962Z,25.17
2022-08-22T22:43:16.556Z,25.17
2022-08-22T22:45:43.432Z,25.14
2022-08-22T22:48:09.400Z,25.06
2022-08-22T22:50:35.489Z,25.48
2022-08-22T22:53:01.535Z,25.58
2022-08-22T22:55:27.505Z,25.60
2022-08-22T22:57:59.201Z,25.62
2022-08-22T23:00:25.604Z,25.60
2022-08-22T23:02:57.433Z,25.51
2022-08-22T23:05:23.421Z,25.56
2022-08-22T23:07:49.443Z,25.53
2022-08-22T23:10:20.012Z,25.62
2022-08-22T23:12:48.580Z,25.44
2022-08-22T23:15:14.579Z,25.43
2022-08-22T23:17:40.564Z,25.18
2022-08-22T23:20:07.254Z,25.08
2022-08-22T23:22:33.319Z,24.80
2022-08-22T23:24:59.260Z,24.66
2022-08-22T23:27:25.894Z,24.82
2022-08-22T23:29:52.459Z,25.01
2022-08-22T23:32:18.403Z,24.96
2022-08-22T23:34:44.360Z,24.71
2022-08-22T23:37:11.219Z,24.62
2022-08-22T23:39:37.162Z,24.45
2022-08-22T23:42:03.112Z,24.62
2022-08-22T23:44:30.030Z,24.78
2022-08-22T23:46:56.012Z,24.70
2022-08-22T23:49:21.967Z,24.62
2022-08-22T23:51:47.965Z,24.66
2022-08-22T23:54:13.913Z,24.66
2022-08-22T23:56:39.857Z,24.74
2022-08-22T23:59:05.931Z,24.86
